createdAt,value
2017-09-20T00:00:27.624Z,945.5
2017-09-20T00:01:35.904Z,945.5
2017-09-20T00:02:43.955Z,945.5
2017-09-20T00:03:52.032Z,945.5
2017-09-20T00:05:00.013Z,945.5
2017-09-20T00:06:08.097Z,945.6
2017-09-20T00:07:16.184Z,945.5
2017-09-20T00:08:24.273Z,945.5
2017-09-20T00:09:32.418Z,945.5
2017-09-20T00:10:40.450Z,945.6
2017-09-20T00:11:48.537Z,945.5
2017-09-20T00:12:56.626Z,945.5
2017-09-20T00:14:04.723Z,945.5
2017-09-20T00:15:12.932Z,945.5
2017-09-20T00:16:20.901Z,945.5
2017-09-20T00:17:28.989Z,945.4
2017-09-20T00:18:37.136Z,945.4
2017-09-20T00:19:45.170Z,945.4
2017-09-20T00:20:53.313Z,945.4
2017-09-20T00:22:01.344Z,945.4
2017-09-20T00:23:09.432Z,945.4
2017-09-20T00:24:17.552Z,945.4
2017-09-20T00:25:25.607Z,945.4
2017-09-20T00:26:33.773Z,945.4
2017-09-20T00:27:41.791Z,945.4
2017-09-20T00:28:49.880Z,945.4
2017-09-20T00:29:58.025Z,945.4
2017-09-20T00:31:06.054Z,945.3
2017-09-20T00:32:14.200Z,945.3
2017-09-20T00:33:22.369Z,945.4
2017-09-20T00:34:30.526Z,945.3
2017-09-20T00:35:38.406Z,945.3
2017-09-20T00:36:46.496Z,945.3
2017-09-20T00:37:54.641Z,945.3
2017-09-20T00:39:02.730Z,945.3
2017-09-20T00:40:10.757Z,945.3
2017-09-20T00:41:18.850Z,945.3
2017-09-20T00:42:26.935Z,945.3
2017-09-20T00:43:35.144Z,945.3
2017-09-20T00:44:43.111Z,945.3
2017-09-20T00:45:51.199Z,945.3
2017-09-20T00:46:59.287Z,945.3
2017-09-20T00:48:07.376Z,945.3
2017-09-20T00:49:15.541Z,945.3
2017-09-20T00:50:23.671Z,945.3
2017-09-20T00:51:31.638Z,945.3
2017-09-20T00:52:39.726Z,945.3
2017-09-20T00:53:47.814Z,945.3
2017-09-20T00:54:55.958Z,945.3
2017-09-20T00:56:03.993Z,945.3
2017-09-20T00:57:12.234Z,945.4
2017-09-20T00:58:20.167Z,945.4
2017-09-20T00:59:28.254Z,945.3
2017-09-20T01:00:36.399Z,945.4
2017-09-20T01:01:44.427Z,945.4
2017-09-20T01:02:52.515Z,945.4
2017-09-20T01:04:00.605Z,945.4
2017-09-20T01:05:08.695Z,945.3
2017-09-20T01:06:16.910Z,945.4
2017-09-20T01:07:24.985Z,945.4
2017-09-20T01:08:32.964Z,945.3
2017-09-20T01:09:41.053Z,945.3
2017-09-20T01:10:49.216Z,945.4
2017-09-20T01:11:57.285Z,945.3
2017-09-20T01:13:05.316Z,945.3
2017-09-20T01:14:13.412Z,945.3
2017-09-20T01:15:21.492Z,945.3
2017-09-20T01:16:29.584Z,945.3
2017-09-20T01:17:37.727Z,945.3
2017-09-20T01:18:45.757Z,945.3
2017-09-20T01:19:53.845Z,945.3
2017-09-20T01:21:01.957Z,945.3
2017-09-20T01:22:10.141Z,945.3
2017-09-20T01:23:18.166Z,945.3
2017-09-20T01:24:26.196Z,945.3
2017-09-20T01:25:34.296Z,945.3
2017-09-20T01:26:42.372Z,945.3
2017-09-20T01:27:50.461Z,945.3
2017-09-20T01:28:58.605Z,945.3
2017-09-20T01:30:06.771Z,945.3
2017-09-20T01:31:14.726Z,945.3
2017-09-20T01:32:22.814Z,945.3
2017-09-20T01:33:30.910Z,945.3
2017-09-20T01:34:39.046Z,945.3
2017-09-20T01:35:47.079Z,945.3
2017-09-20T01:36:55.184Z,945.3
2017-09-20T01:38:03.391Z,945.3
2017-09-20T01:39:11.444Z,945.3
2017-09-20T01:40:19.535Z,945.3
2017-09-20T01:41:27.535Z,945.3
2017-09-20T01:42:35.626Z,945.3
2017-09-20T01:43:43.802Z,945.3
2017-09-20T01:44:51.794Z,945.3
2017-09-20T01:46:00.019Z,945.3
2017-09-20T01:47:07.973Z,945.3
2017-09-20T01:48:16.061Z,945.3
2017-09-20T01:49:24.150Z,945.3
2017-09-20T01:50:32.238Z,945.3
2017-09-20T01:51:40.396Z,945.3
2017-09-20T01:52:48.467Z,945.3
2017-09-20T01:53:56.562Z,945.4
2017-09-20T01:55:04.587Z,945.4
2017-09-20T01:56:12.673Z,945.3
2017-09-20T01:57:20.883Z,945.3
2017-09-20T01:58:28.850Z,945.3
2017-09-20T01:59:36.939Z,945.3
2017-09-20T02:00:45.028Z,945.3
2017-09-20T02:01:53.121Z,945.3
2017-09-20T02:03:01.456Z,945.3
2017-09-20T02:04:09.291Z,945.3
2017-09-20T02:05:17.375Z,945.3
2017-09-20T02:06:25.465Z,945.3
2017-09-20T02:07:33.553Z,945.3
2017-09-20T02:08:41.697Z,945.3
2017-09-20T02:09:49.850Z,945.3
2017-09-20T02:10:57.815Z,945.3
2017-09-20T02:12:05.902Z,945.3
2017-09-20T02:13:13.989Z,945.3
2017-09-20T02:14:22.132Z,945.3
2017-09-20T02:15:30.164Z,945.4
2017-09-20T02:16:38.254Z,945.3
2017-09-20T02:17:46.340Z,945.3
2017-09-20T02:18:54.428Z,945.3
2017-09-20T02:20:02.571Z,945.3
2017-09-20T02:21:10.605Z,945.3
2017-09-20T02:22:18.696Z,945.3
2017-09-20T02:23:26.782Z,945.3
2017-09-20T02:24:34.875Z,945.3
2017-09-20T02:25:43.254Z,945.3
2017-09-20T02:26:51.049Z,945.3
2017-09-20T02:27:59.139Z,945.3
2017-09-20T02:29:07.227Z,945.4
2017-09-20T02:30:15.312Z,945.3
2017-09-20T02:31:23.518Z,945.4
2017-09-20T02:32:31.486Z,945.4
2017-09-20T02:33:39.574Z,945.4
2017-09-20T02:34:47.662Z,945.4
2017-09-20T02:35:55.750Z,945.4
2017-09-20T02:37:03.891Z,945.4
2017-09-20T02:38:11.925Z,945.4
2017-09-20T02:39:20.011Z,945.4
2017-09-20T02:40:28.097Z,945.4
2017-09-20T02:41:36.306Z,945.4
2017-09-20T02:42:44.394Z,945.4
2017-09-20T02:43:52.372Z,945.4
2017-09-20T02:45:00.471Z,945.4
2017-09-20T02:46:08.536Z,945.4
2017-09-20T02:47:16.625Z,945.4
2017-09-20T02:48:24.767Z,945.4
2017-09-20T02:49:32.889Z,945.4
2017-09-20T02:50:40.890Z,945.4
2017-09-20T02:51:48.973Z,945.4
2017-09-20T02:52:57.148Z,945.4
2017-09-20T02:54:05.403Z,945.4
2017-09-20T02:55:13.239Z,945.4
2017-09-20T02:56:21.325Z,945.4
2017-09-20T02:57:29.564Z,945.5
2017-09-20T02:58:37.501Z,945.5
2017-09-20T02:59:45.666Z,945.4
2017-09-20T03:00:53.705Z,945.5
2017-09-20T03:02:01.787Z,945.5
2017-09-20T03:03:09.873Z,945.5
2017-09-20T03:04:17.958Z,945.5
2017-09-20T03:05:26.166Z,945.5
2017-09-20T03:06:34.275Z,945.5
2017-09-20T03:07:42.222Z,945.5
2017-09-20T03:08:50.308Z,945.4
2017-09-20T03:09:58.397Z,945.4
2017-09-20T03:11:06.541Z,945.4
2017-09-20T03:12:14.571Z,945.4
2017-09-20T03:13:22.780Z,945.4
2017-09-20T03:14:30.746Z,945.5
2017-09-20T03:15:38.852Z,945.4
2017-09-20T03:16:47.136Z,945.4
2017-09-20T03:17:55.027Z,945.4
2017-09-20T03:19:03.114Z,945.4
2017-09-20T03:20:11.393Z,945.4
2017-09-20T03:21:19.287Z,945.5
2017-09-20T03:22:27.431Z,945.5
2017-09-20T03:23:35.461Z,945.5
2017-09-20T03:24:43.557Z,945.5
2017-09-20T03:25:51.636Z,945.5
2017-09-20T03:26:59.723Z,945.5
2017-09-20T03:28:07.868Z,945.5
2017-09-20T03:29:16.133Z,945.5
2017-09-20T03:30:23.986Z,945.5
2017-09-20T03:31:32.074Z,945.5
2017-09-20T03:32:40.164Z,945.5
2017-09-20T03:33:48.312Z,945.5
2017-09-20T03:34:56.338Z,945.5
2017-09-20T03:36:04.424Z,945.5
2017-09-20T03:37:12.512Z,945.5
2017-09-20T03:38:20.598Z,945.5
2017-09-20T03:39:28.787Z,945.5
2017-09-20T03:40:36.773Z,945.5
2017-09-20T03:41:44.860Z,945.5
2017-09-20T03:42:52.946Z,945.6
2017-09-20T03:44:01.170Z,945.5
2017-09-20T03:45:09.245Z,945.6
2017-09-20T03:46:17.207Z,945.5
2017-09-20T03:47:25.295Z,945.6
2017-09-20T03:48:33.381Z,945.6
2017-09-20T03:49:41.467Z,945.6
2017-09-20T03:50:49.610Z,945.6
2017-09-20T03:51:57.837Z,945.6
2017-09-20T03:53:05.756Z,945.6
2017-09-20T03:54:13.862Z,945.6
2017-09-20T03:55:22.591Z,945.6
2017-09-20T03:56:30.093Z,945.5
2017-09-20T03:57:38.127Z,945.6
2017-09-20T03:58:46.208Z,945.5
2017-09-20T03:59:54.295Z,945.6
2017-09-20T04:01:02.503Z,945.5
2017-09-20T04:02:10.526Z,945.6
2017-09-20T04:03:18.558Z,945.6
2017-09-20T04:04:26.649Z,945.6
2017-09-20T04:05:34.734Z,945.6
2017-09-20T04:06:42.827Z,945.6
2017-09-20T04:07:50.963Z,945.6
2017-09-20T04:08:58.992Z,945.6
2017-09-20T04:10:07.078Z,945.6
2017-09-20T04:11:15.186Z,945.6
2017-09-20T04:12:23.253Z,945.6
2017-09-20T04:13:31.589Z,945.6
2017-09-20T04:14:39.428Z,945.6
2017-09-20T04:15:47.515Z,945.6
2017-09-20T04:16:55.661Z,945.7
2017-09-20T04:18:03.689Z,945.7
2017-09-20T04:19:11.833Z,945.7
2017-09-20T04:20:19.970Z,945.6
2017-09-20T04:21:28.288Z,945.7
2017-09-20T04:22:36.041Z,945.7
2017-09-20T04:23:44.311Z,945.7
2017-09-20T04:24:52.333Z,945.7
2017-09-20T04:26:01.468Z,945.8
2017-09-20T04:27:08.733Z,945.7
2017-09-20T04:28:16.473Z,945.8
2017-09-20T04:29:24.559Z,945.8
2017-09-20T04:30:32.702Z,945.7
2017-09-20T04:31:40.733Z,945.7
2017-09-20T04:32:48.876Z,945.8
2017-09-20T04:33:56.906Z,945.8
2017-09-20T04:35:04.994Z,945.8
2017-09-20T04:36:13.276Z,945.8
2017-09-20T04:37:21.168Z,945.8
2017-09-20T04:38:29.346Z,945.8
2017-09-20T04:39:37.377Z,945.8
2017-09-20T04:40:45.730Z,945.8
2017-09-20T04:41:53.574Z,945.8
2017-09-20T04:43:01.600Z,945.8
2017-09-20T04:44:10.218Z,945.8
2017-09-20T04:45:17.776Z,945.9
2017-09-20T04:46:25.863Z,945.8
2017-09-20T04:47:35.453Z,945.9
2017-09-20T04:48:42.091Z,945.9
2017-09-20T04:49:50.205Z,945.9
2017-09-20T04:50:58.510Z,945.9
2017-09-20T04:52:06.298Z,945.9
2017-09-20T04:53:14.443Z,945.9
2017-09-20T04:54:22.473Z,945.9
2017-09-20T04:55:30.570Z,945.9
2017-09-20T04:56:38.662Z,945.9
2017-09-20T04:57:46.816Z,945.9
2017-09-20T04:58:55.232Z,945.9
2017-09-20T05:00:03.022Z,945.9
2017-09-20T05:01:11.106Z,945.9
2017-09-20T05:02:19.237Z,945.9
2017-09-20T05:03:27.280Z,945.9
2017-09-20T05:04:35.489Z,945.9
2017-09-20T05:05:43.453Z,945.9
2017-09-20T05:06:51.542Z,945.9
2017-09-20T05:07:59.630Z,945.9
2017-09-20T05:09:07.715Z,945.9
2017-09-20T05:10:15.863Z,945.9
2017-09-20T05:11:23.885Z,945.9
2017-09-20T05:12:31.973Z,945.9
2017-09-20T05:13:40.061Z,945.9
2017-09-20T05:14:48.335Z,945.9
2017-09-20T05:15:56.354Z,945.9
2017-09-20T05:17:04.326Z,945.9
2017-09-20T05:18:12.410Z,945.9
2017-09-20T05:19:20.686Z,945.9
2017-09-20T05:20:28.638Z,945.9
2017-09-20T05:21:36.736Z,945.9
2017-09-20T05:22:44.768Z,945.9
2017-09-20T05:23:52.863Z,945.9
2017-09-20T05:25:00.989Z,945.9
2017-09-20T05:26:09.036Z,946.0
2017-09-20T05:27:17.245Z,946.0
2017-09-20T05:28:25.212Z,946.0
2017-09-20T05:29:33.395Z,946.0
2017-09-20T05:30:41.387Z,946.1
2017-09-20T05:31:49.471Z,946.0
2017-09-20T05:32:57.616Z,946.1
2017-09-20T05:34:05.760Z,946.1
2017-09-20T05:35:13.749Z,946.1
2017-09-20T05:36:21.965Z,946.1
2017-09-20T05:37:29.931Z,946.1
2017-09-20T05:38:38.176Z,946.1
2017-09-20T05:39:46.104Z,946.1
2017-09-20T05:40:54.189Z,946.1
2017-09-20T05:42:02.276Z,946.1
2017-09-20T05:43:10.563Z,946.1
2017-09-20T05:44:18.507Z,946.1
2017-09-20T05:45:26.540Z,946.1
2017-09-20T05:46:34.625Z,946.1
2017-09-20T05:47:42.899Z,946.1
2017-09-20T05:48:50.797Z,946.1
2017-09-20T05:49:59.005Z,946.1
2017-09-20T05:51:06.970Z,946.2
2017-09-20T05:52:15.214Z,946.1
2017-09-20T05:53:23.144Z,946.1
2017-09-20T05:54:31.230Z,946.1
2017-09-20T05:55:39.373Z,946.2
2017-09-20T05:56:47.419Z,946.2
2017-09-20T05:57:55.491Z,946.2
2017-09-20T05:59:03.574Z,946.1
2017-09-20T06:00:11.662Z,946.2
2017-09-20T06:01:19.869Z,946.1
2017-09-20T06:02:27.836Z,946.1
2017-09-20T06:03:35.922Z,946.1
2017-09-20T06:04:44.010Z,946.1
2017-09-20T06:05:52.212Z,946.1
2017-09-20T06:07:00.317Z,946.1
2017-09-20T06:08:08.389Z,946.2
2017-09-20T06:09:16.354Z,946.1
2017-09-20T06:10:24.439Z,946.1
2017-09-20T06:11:32.527Z,946.2
2017-09-20T06:12:40.668Z,946.2
2017-09-20T06:13:48.700Z,946.2
2017-09-20T06:14:56.791Z,946.2
2017-09-20T06:16:04.944Z,946.2
2017-09-20T06:17:12.957Z,946.1
2017-09-20T06:18:21.163Z,946.2
2017-09-20T06:19:29.129Z,946.2
2017-09-20T06:20:37.283Z,946.2
2017-09-20T06:21:45.302Z,946.2
2017-09-20T06:22:53.395Z,946.2
2017-09-20T06:24:01.531Z,946.2
2017-09-20T06:25:09.730Z,946.2
2017-09-20T06:26:17.647Z,946.2
2017-09-20T06:27:25.733Z,946.2
2017-09-20T06:28:33.981Z,946.3
2017-09-20T06:29:42.032Z,946.3
2017-09-20T06:30:49.990Z,946.3
2017-09-20T06:31:58.075Z,946.3
2017-09-20T06:33:06.164Z,946.3
2017-09-20T06:34:14.319Z,946.4
2017-09-20T06:35:22.417Z,946.4
2017-09-20T06:36:30.422Z,946.4
2017-09-20T06:37:38.512Z,946.4
2017-09-20T06:38:46.597Z,946.5
2017-09-20T06:39:54.735Z,946.4
2017-09-20T06:41:02.886Z,946.5
2017-09-20T06:42:10.852Z,946.5
2017-09-20T06:43:19.015Z,946.5
2017-09-20T06:44:27.023Z,946.5
2017-09-20T06:45:35.110Z,946.5
2017-09-20T06:46:43.252Z,946.5
2017-09-20T06:47:51.475Z,946.5
2017-09-20T06:48:59.366Z,946.6
2017-09-20T06:50:07.453Z,946.6
2017-09-20T06:51:15.540Z,946.6
2017-09-20T06:52:23.681Z,946.5
2017-09-20T06:53:31.713Z,946.6
2017-09-20T06:54:39.801Z,946.5
2017-09-20T06:55:48.005Z,946.5
2017-09-20T06:56:55.976Z,946.5
2017-09-20T06:58:04.261Z,946.5
2017-09-20T06:59:12.143Z,946.6
2017-09-20T07:00:20.228Z,946.6
2017-09-20T07:01:28.314Z,946.6
2017-09-20T07:02:36.399Z,946.6
2017-09-20T07:03:44.541Z,946.6
2017-09-20T07:04:52.571Z,946.6
2017-09-20T07:06:00.659Z,946.5
2017-09-20T07:07:08.919Z,946.6
2017-09-20T07:08:16.829Z,946.6
2017-09-20T07:09:25.035Z,946.6
2017-09-20T07:10:33.013Z,946.6
2017-09-20T07:11:41.285Z,946.6
2017-09-20T07:12:49.193Z,946.5
2017-09-20T07:13:57.271Z,946.6
2017-09-20T07:15:05.412Z,946.6
2017-09-20T07:16:13.441Z,946.6
2017-09-20T07:17:21.528Z,946.6
2017-09-20T07:18:29.621Z,946.5
2017-09-20T07:19:37.701Z,946.5
2017-09-20T07:20:45.962Z,946.5
2017-09-20T07:21:53.875Z,946.5
2017-09-20T07:23:01.962Z,946.5
2017-09-20T07:24:10.048Z,946.5
2017-09-20T07:25:18.218Z,946.5
2017-09-20T07:26:26.274Z,946.5
2017-09-20T07:27:34.361Z,946.5
2017-09-20T07:28:42.396Z,946.5
2017-09-20T07:29:50.490Z,946.5
2017-09-20T07:30:58.564Z,946.5
2017-09-20T07:32:06.771Z,946.5
2017-09-20T07:33:14.746Z,946.5
2017-09-20T07:34:23.001Z,946.5
2017-09-20T07:35:30.919Z,946.6
2017-09-20T07:36:39.012Z,946.6
2017-09-20T07:37:47.154Z,946.6
2017-09-20T07:38:55.358Z,946.6
2017-09-20T07:40:03.280Z,946.6
2017-09-20T07:41:11.364Z,946.5
2017-09-20T07:42:19.451Z,946.5
2017-09-20T07:43:27.766Z,946.5
2017-09-20T07:44:35.624Z,946.5
2017-09-20T07:45:43.717Z,946.5
2017-09-20T07:46:51.816Z,946.6
2017-09-20T07:47:59.901Z,946.6
2017-09-20T07:49:08.140Z,946.5
2017-09-20T07:50:16.074Z,946.5
2017-09-20T07:51:24.162Z,946.5
2017-09-20T07:52:32.290Z,946.5
2017-09-20T07:53:40.334Z,946.5
2017-09-20T07:54:48.539Z,946.6
2017-09-20T07:55:56.505Z,946.6
2017-09-20T07:57:04.596Z,946.5
2017-09-20T07:58:12.678Z,946.5
2017-09-20T07:59:20.826Z,946.5
2017-09-20T08:00:28.979Z,946.5
2017-09-20T08:01:37.005Z,946.6
2017-09-20T08:02:45.034Z,946.5
2017-09-20T08:03:53.110Z,946.6
2017-09-20T08:05:01.192Z,946.6
2017-09-20T08:06:09.339Z,946.6
2017-09-20T08:07:17.370Z,946.6
2017-09-20T08:08:25.465Z,946.6
2017-09-20T08:09:33.540Z,946.6
2017-09-20T08:10:41.639Z,946.6
2017-09-20T08:11:49.865Z,946.6
2017-09-20T08:12:57.850Z,946.6
2017-09-20T08:14:05.928Z,946.7
2017-09-20T08:15:14.068Z,946.6
2017-09-20T08:16:22.099Z,946.7
2017-09-20T08:17:30.248Z,946.6
2017-09-20T08:18:38.294Z,946.6
2017-09-20T08:19:46.376Z,946.7
2017-09-20T08:20:54.461Z,946.6
2017-09-20T08:22:02.547Z,946.7
2017-09-20T08:23:10.699Z,946.7
2017-09-20T08:24:18.729Z,946.7
2017-09-20T08:25:26.830Z,946.7
2017-09-20T08:26:34.902Z,946.7
2017-09-20T08:27:42.988Z,946.7
2017-09-20T08:28:51.130Z,946.7
2017-09-20T08:29:59.275Z,946.7
2017-09-20T08:31:07.366Z,946.7
2017-09-20T08:32:15.331Z,946.7
2017-09-20T08:33:23.418Z,946.7
2017-09-20T08:34:31.559Z,946.7
2017-09-20T08:35:39.597Z,946.7
2017-09-20T08:36:47.686Z,946.7
2017-09-20T08:37:55.767Z,946.7
2017-09-20T08:39:03.859Z,946.8
2017-09-20T08:40:11.996Z,946.7
2017-09-20T08:41:20.027Z,946.7
2017-09-20T08:42:28.120Z,946.7
2017-09-20T08:43:36.200Z,946.7
2017-09-20T08:44:44.290Z,946.7
2017-09-20T08:45:52.430Z,946.8
2017-09-20T08:47:00.513Z,946.8
2017-09-20T08:48:08.545Z,946.8
2017-09-20T08:49:16.630Z,946.8
2017-09-20T08:50:24.725Z,946.8
2017-09-20T08:51:32.860Z,946.8
2017-09-20T08:52:40.889Z,946.8
2017-09-20T08:53:48.976Z,946.9
2017-09-20T08:54:57.062Z,946.8
2017-09-20T08:56:05.148Z,946.9
2017-09-20T08:57:13.289Z,946.8
2017-09-20T08:58:21.325Z,946.9
2017-09-20T08:59:29.404Z,946.8
2017-09-20T09:00:37.489Z,946.8
2017-09-20T09:01:45.583Z,946.8
2017-09-20T09:02:53.719Z,946.8
2017-09-20T09:04:01.751Z,946.8
2017-09-20T09:05:09.835Z,946.8
2017-09-20T09:06:17.919Z,946.8
2017-09-20T09:07:26.007Z,946.8
2017-09-20T09:08:34.147Z,946.8
2017-09-20T09:09:42.176Z,946.8
2017-09-20T09:10:50.265Z,946.8
2017-09-20T09:11:58.350Z,946.8
2017-09-20T09:13:06.445Z,946.8
2017-09-20T09:14:14.597Z,946.8
2017-09-20T09:15:22.627Z,946.8
2017-09-20T09:16:30.723Z,946.8
2017-09-20T09:17:38.808Z,946.8
2017-09-20T09:18:47.014Z,946.8
2017-09-20T09:19:55.101Z,946.8
2017-09-20T09:21:03.142Z,946.8
2017-09-20T09:22:11.150Z,946.8
2017-09-20T09:23:19.236Z,946.8
2017-09-20T09:24:27.324Z,946.8
2017-09-20T09:25:35.467Z,946.8
2017-09-20T09:26:43.496Z,946.8
2017-09-20T09:27:51.584Z,946.8
2017-09-20T09:28:59.669Z,946.8
2017-09-20T09:30:07.754Z,946.8
2017-09-20T09:31:15.903Z,946.8
2017-09-20T09:32:23.927Z,946.8
2017-09-20T09:33:32.014Z,946.9
2017-09-20T09:34:40.310Z,946.9
2017-09-20T09:35:48.186Z,946.8
2017-09-20T09:36:56.336Z,946.9
2017-09-20T09:38:04.361Z,946.9
2017-09-20T09:39:12.513Z,946.9
2017-09-20T09:40:20.531Z,946.9
2017-09-20T09:41:28.616Z,946.9
2017-09-20T09:42:36.758Z,946.9
2017-09-20T09:43:44.789Z,946.9
2017-09-20T09:44:52.878Z,946.8
2017-09-20T09:46:00.961Z,946.9
2017-09-20T09:47:09.049Z,946.9
2017-09-20T09:48:17.257Z,946.8
2017-09-20T09:49:25.218Z,946.9
2017-09-20T09:50:33.436Z,946.9
2017-09-20T09:51:41.392Z,946.9
2017-09-20T09:52:49.553Z,946.9
2017-09-20T09:53:57.621Z,946.9
2017-09-20T09:55:05.656Z,946.9
2017-09-20T09:56:13.738Z,946.9
2017-09-20T09:57:22.022Z,946.9
2017-09-20T09:58:29.919Z,947.0
2017-09-20T09:59:38.050Z,946.9
2017-09-20T10:00:46.081Z,946.9
2017-09-20T10:01:54.360Z,946.9
2017-09-20T10:03:02.254Z,946.9
2017-09-20T10:04:10.341Z,946.9
2017-09-20T10:05:18.546Z,946.9
2017-09-20T10:06:26.571Z,946.9
2017-09-20T10:07:34.599Z,946.9
2017-09-20T10:08:42.692Z,946.9
2017-09-20T10:09:50.768Z,947.0
2017-09-20T10:10:58.912Z,946.9
2017-09-20T10:12:06.946Z,946.9
2017-09-20T10:13:15.029Z,946.9
2017-09-20T10:14:23.116Z,946.9
2017-09-20T10:15:31.202Z,946.9
2017-09-20T10:16:39.409Z,946.8
2017-09-20T10:17:47.391Z,946.9
2017-09-20T10:18:55.463Z,946.8
2017-09-20T10:20:03.550Z,946.9
2017-09-20T10:21:11.738Z,946.8
2017-09-20T10:22:19.776Z,946.9
2017-09-20T10:23:27.806Z,946.9
2017-09-20T10:24:35.902Z,946.8
2017-09-20T10:25:43.987Z,946.9
2017-09-20T10:26:52.072Z,946.9
2017-09-20T10:28:00.280Z,946.8
2017-09-20T10:29:08.247Z,946.8
2017-09-20T10:30:16.333Z,946.8
2017-09-20T10:31:24.420Z,946.7
2017-09-20T10:32:32.505Z,946.7
2017-09-20T10:33:40.714Z,946.7
2017-09-20T10:34:48.846Z,946.7
2017-09-20T10:35:56.766Z,946.7
2017-09-20T10:37:04.851Z,946.7
2017-09-20T10:38:13.056Z,946.6
2017-09-20T10:39:21.259Z,946.6
2017-09-20T10:40:29.108Z,946.6
2017-09-20T10:41:37.195Z,946.6
2017-09-20T10:42:45.281Z,946.6
2017-09-20T10:43:53.369Z,946.6
2017-09-20T10:45:01.580Z,946.6
2017-09-20T10:46:09.539Z,946.6
2017-09-20T10:47:17.625Z,946.6
2017-09-20T10:48:25.712Z,946.6
2017-09-20T10:49:33.797Z,946.5
2017-09-20T10:50:42.004Z,946.5
2017-09-20T10:51:49.969Z,946.5
2017-09-20T10:52:58.057Z,946.5
2017-09-20T10:54:06.198Z,946.5
2017-09-20T10:55:14.569Z,946.5
2017-09-20T10:56:22.370Z,946.5
2017-09-20T10:57:30.408Z,946.5
2017-09-20T10:58:38.490Z,946.4
2017-09-20T10:59:46.577Z,946.5
2017-09-20T11:00:54.662Z,946.5
2017-09-20T11:02:02.869Z,946.5
2017-09-20T11:03:10.845Z,946.4
2017-09-20T11:04:18.922Z,946.5
2017-09-20T11:05:27.007Z,946.5
2017-09-20T11:06:35.092Z,946.5
2017-09-20T11:07:43.336Z,946.4
2017-09-20T11:08:51.284Z,946.5
2017-09-20T11:09:59.428Z,946.5
2017-09-20T11:11:07.506Z,946.5
2017-09-20T11:12:15.591Z,946.5
2017-09-20T11:13:23.735Z,946.5
2017-09-20T11:14:31.763Z,946.5
2017-09-20T11:15:40.010Z,946.5
2017-09-20T11:16:48.045Z,946.5
2017-09-20T11:17:56.023Z,946.5
2017-09-20T11:19:04.240Z,946.5
2017-09-20T11:20:12.202Z,946.5
2017-09-20T11:21:20.395Z,946.5
2017-09-20T11:22:28.373Z,946.5
2017-09-20T11:23:36.460Z,946.5
2017-09-20T11:24:44.668Z,946.5
2017-09-20T11:25:52.796Z,946.5
2017-09-20T11:27:00.719Z,946.5
2017-09-20T11:28:08.808Z,946.5
2017-09-20T11:29:16.891Z,946.5
2017-09-20T11:30:25.096Z,946.5
2017-09-20T11:31:33.061Z,946.5
2017-09-20T11:32:41.149Z,946.5
2017-09-20T11:33:49.238Z,946.4
2017-09-20T11:34:57.457Z,946.4
2017-09-20T11:36:05.469Z,946.4
2017-09-20T11:37:13.500Z,946.4
2017-09-20T11:38:21.584Z,946.4
2017-09-20T11:39:29.799Z,946.4
2017-09-20T11:40:37.763Z,946.3
2017-09-20T11:41:45.906Z,946.4
2017-09-20T11:42:53.933Z,946.3
2017-09-20T11:44:02.018Z,946.3
2017-09-20T11:45:10.105Z,946.4
2017-09-20T11:46:18.190Z,946.3
2017-09-20T11:47:26.397Z,946.4
2017-09-20T11:48:34.361Z,946.4
2017-09-20T11:49:42.447Z,946.4
2017-09-20T11:50:50.536Z,946.4
2017-09-20T11:51:58.636Z,946.4
2017-09-20T11:53:06.778Z,946.4
2017-09-20T11:54:14.859Z,946.4
2017-09-20T11:55:22.891Z,946.4
2017-09-20T11:56:30.982Z,946.4
2017-09-20T11:57:39.293Z,946.3
2017-09-20T11:58:47.319Z,946.3
2017-09-20T11:59:55.238Z,946.4
2017-09-20T12:01:03.325Z,946.4
2017-09-20T12:02:11.428Z,946.4
2017-09-20T12:03:19.499Z,946.4
2017-09-20T12:04:27.710Z,946.4
2017-09-20T12:05:35.677Z,946.4
2017-09-20T12:06:43.762Z,946.4
2017-09-20T12:07:51.991Z,946.4
2017-09-20T12:08:59.934Z,946.4
2017-09-20T12:10:08.080Z,946.4
2017-09-20T12:11:16.159Z,946.4
2017-09-20T12:12:24.261Z,946.4
2017-09-20T12:13:32.453Z,946.3
2017-09-20T12:14:40.419Z,946.3
2017-09-20T12:15:48.564Z,946.3
2017-09-20T12:16:56.591Z,946.3
2017-09-20T12:18:04.680Z,946.2
2017-09-20T12:19:12.764Z,946.3
2017-09-20T12:20:20.857Z,946.3
2017-09-20T12:21:28.997Z,946.2
2017-09-20T12:22:37.022Z,946.2
2017-09-20T12:23:45.106Z,946.2
2017-09-20T12:24:53.192Z,946.2
2017-09-20T12:26:01.394Z,946.2
2017-09-20T12:27:09.424Z,946.1
2017-09-20T12:28:17.452Z,946.2
2017-09-20T12:29:25.659Z,946.2
2017-09-20T12:30:33.635Z,946.1
2017-09-20T12:31:41.719Z,946.2
2017-09-20T12:32:49.927Z,946.2
2017-09-20T12:33:57.891Z,946.1
2017-09-20T12:35:06.082Z,946.1
2017-09-20T12:36:14.072Z,946.1
2017-09-20T12:37:22.158Z,946.2
2017-09-20T12:38:30.300Z,946.2
2017-09-20T12:39:38.330Z,946.2
2017-09-20T12:40:46.448Z,946.1
2017-09-20T12:41:54.506Z,946.1
2017-09-20T12:43:02.590Z,946.1
2017-09-20T12:44:10.910Z,946.1
2017-09-20T12:45:18.820Z,946.1
2017-09-20T12:46:26.856Z,946.1
2017-09-20T12:47:34.932Z,946.1
2017-09-20T12:48:43.047Z,946.1
2017-09-20T12:49:51.242Z,946.1
2017-09-20T12:50:59.190Z,946.1
2017-09-20T12:52:07.277Z,946.1
2017-09-20T12:53:15.363Z,946.1
2017-09-20T12:54:23.451Z,946.1
2017-09-20T12:55:31.591Z,946.1
2017-09-20T12:56:39.619Z,946.1
2017-09-20T12:57:47.706Z,946.1
2017-09-20T12:58:55.795Z,946.1
2017-09-20T13:00:03.884Z,946.1
2017-09-20T13:01:12.089Z,946.1
2017-09-20T13:02:20.053Z,946.1
2017-09-20T13:03:28.138Z,946.1
2017-09-20T13:04:36.226Z,946.1
2017-09-20T13:05:44.312Z,946.1
2017-09-20T13:06:52.456Z,946.1
2017-09-20T13:08:00.572Z,946.1
2017-09-20T13:09:08.691Z,946.1
2017-09-20T13:10:16.655Z,946.1
2017-09-20T13:11:24.746Z,946.1
2017-09-20T13:12:33.044Z,946.1
2017-09-20T13:13:40.912Z,946.1
2017-09-20T13:14:49.008Z,946.1
2017-09-20T13:15:57.096Z,946.1
2017-09-20T13:17:05.239Z,946.1
2017-09-20T13:18:13.324Z,946.0
2017-09-20T13:19:21.354Z,946.0
2017-09-20T13:20:29.441Z,946.0
2017-09-20T13:21:37.525Z,946.0
2017-09-20T13:22:45.612Z,946.0
2017-09-20T13:23:53.820Z,946.0
2017-09-20T13:25:01.780Z,946.0
2017-09-20T13:26:09.869Z,946.0
2017-09-20T13:27:17.957Z,946.0
2017-09-20T13:28:26.043Z,946.0
2017-09-20T13:29:34.254Z,946.0
2017-09-20T13:30:42.336Z,946.0
2017-09-20T13:31:50.304Z,946.0
2017-09-20T13:32:58.511Z,946.0
2017-09-20T13:34:06.476Z,945.9
2017-09-20T13:35:14.620Z,945.9
2017-09-20T13:36:22.651Z,946.0
2017-09-20T13:37:30.737Z,946.0
2017-09-20T13:38:38.821Z,946.0
2017-09-20T13:39:47.031Z,946.0
2017-09-20T13:40:55.061Z,946.0
2017-09-20T13:42:03.091Z,946.0
2017-09-20T13:43:11.176Z,945.9
2017-09-20T13:44:19.264Z,946.0
2017-09-20T13:45:27.348Z,945.9
2017-09-20T13:46:35.554Z,945.9
2017-09-20T13:47:43.521Z,945.9
2017-09-20T13:48:51.665Z,945.9
2017-09-20T13:49:59.753Z,945.9
2017-09-20T13:51:07.791Z,945.9
2017-09-20T13:52:15.996Z,945.9
2017-09-20T13:53:23.962Z,945.9
2017-09-20T13:54:32.047Z,945.8
2017-09-20T13:55:40.132Z,945.9
2017-09-20T13:56:48.219Z,945.8
2017-09-20T13:57:56.362Z,945.9
2017-09-20T13:59:04.390Z,945.8
2017-09-20T14:00:12.486Z,945.9
2017-09-20T14:01:20.570Z,945.8
2017-09-20T14:02:28.660Z,945.8
2017-09-20T14:03:36.800Z,945.9
2017-09-20T14:04:44.948Z,945.8
2017-09-20T14:05:52.915Z,945.8
2017-09-20T14:07:01.000Z,945.8
2017-09-20T14:08:09.125Z,945.8
2017-09-20T14:09:17.231Z,945.8
2017-09-20T14:10:25.268Z,945.8
2017-09-20T14:11:33.352Z,945.8
2017-09-20T14:12:41.437Z,945.8
2017-09-20T14:13:49.534Z,945.8
2017-09-20T14:14:57.739Z,945.8
2017-09-20T14:16:05.707Z,945.8
2017-09-20T14:17:13.799Z,945.8
2017-09-20T14:18:21.878Z,945.9
2017-09-20T14:19:29.965Z,945.9
2017-09-20T14:20:38.105Z,945.8
2017-09-20T14:21:46.184Z,945.8
2017-09-20T14:22:54.411Z,945.8
2017-09-20T14:24:02.308Z,945.8
2017-09-20T14:25:10.404Z,945.8
2017-09-20T14:26:18.545Z,945.8
2017-09-20T14:27:26.576Z,945.8
2017-09-20T14:28:34.659Z,945.8
2017-09-20T14:29:42.754Z,945.8
2017-09-20T14:30:50.832Z,945.8
2017-09-20T14:31:59.231Z,945.8
2017-09-20T14:33:07.005Z,945.8
2017-09-20T14:34:15.118Z,945.8
2017-09-20T14:35:23.182Z,945.9
2017-09-20T14:36:31.324Z,945.8